Time;durP1;ratioP1;P1;durP2;ratioP2;P2;SDS_P1;SDS_P2;PMS_P1;PMS_P2;Temp;Humidity;BMP_temperature;BMP_pressure;BME280_temperature;BME280_humidity;BME280_pressure;Samples;Min_cycle;Max_cycle;Signal;HPM_P1;HPM_P2
2021/05/29 00:01:29;;;;;;;2.05;1.75;;;23.70;36.20;;;;;;4990249;28;20205;-46
2021/05/29 00:03:55;;;;;;;1.40;1.30;;;23.70;36.20;;;;;;4991419;28;20200;-52
2021/05/29 00:06:21;;;;;;;1.30;1.20;;;23.70;36.30;;;;;;4993267;28;20235;-45
2021/05/29 00:08:47;;;;;;;1.70;1.30;;;23.70;36.40;;;;;;4993944;28;20211;-41
2021/05/29 00:11:13;;;;;;;1.60;1.50;;;23.70;36.30;;;;;;4992852;28;20200;-48
2021/05/29 00:13:40;;;;;;;2.40;1.23;;;23.70;36.30;;;;;;4991341;28;20208;-44
2021/05/29 00:16:08;;;;;;;2.35;1.15;;;23.70;36.30;;;;;;4992790;28;20224;-48
2021/05/29 00:18:34;;;;;;;1.98;1.40;;;23.70;36.30;;;;;;4993795;28;20270;-41
2021/05/29 00:21:00;;;;;;;2.45;1.38;;;23.70;36.40;;;;;;4991996;28;20254;-47
2021/05/29 00:23:26;;;;;;;1.60;1.30;;;23.70;36.50;;;;;;4990026;28;20207;-47
2021/05/29 00:25:52;;;;;;;1.73;1.42;;;23.70;36.50;;;;;;4993460;28;20704;-46
2021/05/29 00:28:18;;;;;;;2.17;1.30;;;23.70;36.50;;;;;;4992495;28;20219;-41
2021/05/29 00:30:44;;;;;;;1.77;1.40;;;23.70;36.40;;;;;;4992778;28;20207;-40
2021/05/29 00:33:10;;;;;;;1.90;1.30;;;23.70;36.50;;;;;;4990316;28;20200;-41
2021/05/29 00:35:36;;;;;;;1.25;1.20;;;23.70;36.50;;;;;;4986908;28;20192;-44
2021/05/29 00:38:02;;;;;;;1.70;1.60;;;23.70;36.40;;;;;;4992669;28;20231;-44
2021/05/29 00:40:28;;;;;;;1.77;1.45;;;23.70;36.60;;;;;;4993012;28;20691;-43
2021/05/29 00:42:54;;;;;;;1.52;1.40;;;23.70;36.50;;;;;;4991578;28;20243;-44
2021/05/29 00:45:20;;;;;;;1.50;1.40;;;23.70;36.50;;;;;;4991697;28;20249;-51
2021/05/29 00:47:46;;;;;;;1.42;1.23;;;23.70;36.50;;;;;;4991142;28;20231;-48
2021/05/29 00:50:12;;;;;;;1.30;1.17;;;23.70;36.50;;;;;;4991566;28;20203;-43
2021/05/29 00:52:38;;;;;;;1.50;1.40;;;23.70;36.40;;;;;;4991484;28;20230;-53
2021/05/29 00:55:04;;;;;;;1.40;1.30;;;23.60;36.60;;;;;;4992151;28;20656;-47
2021/05/29 00:57:30;;;;;;;1.40;1.30;;;23.70;36.60;;;;;;4992322;28;20293;-46
2021/05/29 00:59:56;;;;;;;1.38;1.27;;;23.70;36.60;;;;;;4992497;28;20222;-45
2021/05/29 01:02:22;;;;;;;1.90;1.30;;;23.70;36.80;;;;;;4991772;28;20230;-46
2021/05/29 01:04:48;;;;;;;1.30;1.20;;;23.70;36.60;;;;;;4991751;28;20206;-45
2021/05/29 01:07:14;;;;;;;1.83;1.30;;;23.70;36.70;;;;;;4990799;28;20953;-47
2021/05/29 01:09:40;;;;;;;1.85;1.55;;;23.70;36.60;;;;;;4992324;28;20200;-45
2021/05/29 01:12:06;;;;;;;1.50;1.25;;;23.70;36.70;;;;;;4992518;28;20207;-42
2021/05/29 01:14:33;;;;;;;1.40;1.30;;;23.70;36.60;;;;;;4990633;28;20207;-53
2021/05/29 01:16:59;;;;;;;1.30;1.20;;;23.70;36.70;;;;;;4991626;28;20323;-41
2021/05/29 01:19:25;;;;;;;1.85;1.30;;;23.70;36.60;;;;;;4992245;28;20628;-44
2021/05/29 01:21:50;;;;;;;1.50;1.40;;;23.70;36.70;;;;;;4991898;28;20223;-41
2021/05/29 01:24:16;;;;;;;1.30;1.20;;;23.70;36.80;;;;;;4990613;28;20204;-45
2021/05/29 01:26:42;;;;;;;1.40;1.30;;;23.70;36.70;;;;;;4991055;28;20680;-45
2021/05/29 01:29:09;;;;;;;1.65;1.30;;;23.70;36.60;;;;;;4992488;28;20207;-41
2021/05/29 01:31:35;;;;;;;1.67;1.25;;;23.70;36.80;;;;;;4991873;28;20254;-41
2021/05/29 01:34:01;;;;;;;2.58;1.38;;;23.70;36.80;;;;;;4990680;28;20220;-40
2021/05/29 01:36:27;;;;;;;1.48;1.38;;;23.70;36.70;;;;;;4989535;28;20238;-42
2021/05/29 01:38:53;;;;;;;1.70;1.60;;;23.60;36.60;;;;;;4991920;28;20228;-40
2021/05/29 01:41:19;;;;;;;2.05;1.30;;;23.60;36.80;;;;;;4973547;28;20232;-43
2021/05/29 01:43:44;;;;;;;1.30;1.20;;;23.70;36.80;;;;;;4973164;28;20220;-40
2021/05/29 01:46:11;;;;;;;1.65;1.50;;;23.60;36.80;;;;;;4987804;28;20224;-39
2021/05/29 01:48:39;;;;;;;1.40;1.30;;;23.70;37.20;;;;;;4991027;28;20204;-53
2021/05/29 01:51:05;;;;;;;1.40;1.30;;;23.70;37.20;;;;;;4992388;28;20204;-44
2021/05/29 01:53:31;;;;;;;1.38;1.27;;;23.70;37.10;;;;;;4991328;28;20243;-50
2021/05/29 01:55:57;;;;;;;1.55;1.25;;;23.70;37.00;;;;;;4990226;28;20234;-49
2021/05/29 01:58:23;;;;;;;1.40;1.20;;;23.70;37.00;;;;;;4991660;28;20227;-48
2021/05/29 02:00:49;;;;;;;1.40;1.30;;;23.60;36.80;;;;;;4990597;28;20654;-40
2021/05/29 02:03:15;;;;;;;1.73;1.40;;;23.60;36.80;;;;;;4987834;28;20200;-50
2021/05/29 02:05:41;;;;;;;1.40;1.30;;;23.70;36.80;;;;;;4989792;28;20598;-39
2021/05/29 02:08:07;;;;;;;1.30;1.30;;;23.60;36.80;;;;;;4991376;28;20246;-44
2021/05/29 02:10:33;;;;;;;1.42;1.33;;;23.60;36.70;;;;;;4991072;28;20204;-40
2021/05/29 02:12:59;;;;;;;1.40;1.30;;;23.70;36.70;;;;;;4990800;28;20216;-41
2021/05/29 02:15:25;;;;;;;1.67;1.27;;;23.60;36.80;;;;;;4988984;28;20215;-39
2021/05/29 02:17:51;;;;;;;1.25;1.15;;;23.60;36.70;;;;;;4990811;28;20240;-47
2021/05/29 02:20:17;;;;;;;1.50;1.40;;;23.60;36.70;;;;;;4989800;28;20274;-46
2021/05/29 02:22:43;;;;;;;1.45;1.38;;;23.60;36.70;;;;;;4990841;28;20203;-42
2021/05/29 02:25:09;;;;;;;1.10;1.10;;;23.60;36.80;;;;;;4989493;28;20200;-50
2021/05/29 02:27:35;;;;;;;1.33;1.23;;;23.60;36.70;;;;;;4990417;28;20354;-41
2021/05/29 02:30:01;;;;;;;1.13;1.13;;;23.60;36.70;;;;;;4990651;28;20582;-44
2021/05/29 02:32:27;;;;;;;1.40;1.30;;;23.60;36.80;;;;;;4989890;28;20211;-43
2021/05/29 02:34:53;;;;;;;1.52;1.30;;;23.60;36.80;;;;;;4989523;28;20299;-45
2021/05/29 02:37:19;;;;;;;1.38;1.27;;;23.60;37.00;;;;;;4989981;28;20223;-50
2021/05/29 02:39:45;;;;;;;1.38;1.27;;;23.60;36.90;;;;;;4984213;28;20208;-40
2021/05/29 02:42:11;;;;;;;1.40;1.30;;;23.60;36.90;;;;;;4982819;28;20206;-45
2021/05/29 02:44:37;;;;;;;1.20;1.20;;;23.60;36.90;;;;;;4989382;28;20296;-41
2021/05/29 02:47:03;;;;;;;1.98;1.10;;;23.60;36.90;;;;;;4988672;28;20680;-44
2021/05/29 02:49:29;;;;;;;1.40;1.30;;;23.60;36.90;;;;;;4991586;28;20219;-42
2021/05/29 02:51:55;;;;;;;1.40;1.30;;;23.60;36.90;;;;;;4990563;28;20200;-45
2021/05/29 02:54:22;;;;;;;2.80;1.50;;;23.60;37.00;;;;;;4990507;28;20278;-40
2021/05/29 02:56:48;;;;;;;1.42;1.33;;;23.60;36.90;;;;;;4989475;28;20222;-43
2021/05/29 02:59:14;;;;;;;1.38;1.13;;;23.60;36.90;;;;;;4990745;28;20247;-43
2021/05/29 03:01:40;;;;;;;1.55;1.45;;;23.60;36.80;;;;;;4990296;28;20562;-40
2021/05/29 03:04:06;;;;;;;2.15;1.30;;;23.60;36.90;;;;;;4989677;28;20204;-51
2021/05/29 03:06:32;;;;;;;1.65;1.30;;;23.60;36.90;;;;;;4989850;28;20302;-44
2021/05/29 03:08:59;;;;;;;1.33;1.17;;;23.60;36.90;;;;;;4989763;28;20250;-40
2021/05/29 03:11:25;;;;;;;1.38;1.23;;;23.60;37.10;;;;;;4991189;28;20203;-40
2021/05/29 03:13:51;;;;;;;1.70;1.60;;;23.60;36.90;;;;;;4990639;28;20219;-40
2021/05/29 03:16:17;;;;;;;1.40;1.30;;;23.60;37.00;;;;;;4988774;28;20740;-42
2021/05/29 03:18:43;;;;;;;1.40;1.30;;;23.60;36.90;;;;;;4990303;28;20227;-44
2021/05/29 03:21:09;;;;;;;1.15;1.15;;;23.60;36.90;;;;;;4990335;28;20203;-42
2021/05/29 03:23:35;;;;;;;1.30;1.20;;;23.60;36.90;;;;;;4990498;28;20211;-48
2021/05/29 03:26:01;;;;;;;2.35;1.48;;;23.60;36.90;;;;;;4988900;28;20223;-41
2021/05/29 03:28:27;;;;;;;1.25;1.10;;;23.60;36.90;;;;;;4989107;28;20215;-42
2021/05/29 03:30:53;;;;;;;1.50;1.40;;;23.60;37.10;;;;;;4989268;28;20207;-43
2021/05/29 03:33:19;;;;;;;1.75;1.50;;;23.60;36.90;;;;;;4989851;28;20204;-47
2021/05/29 03:35:45;;;;;;;1.42;1.33;;;23.60;37.00;;;;;;4988484;28;20262;-49
2021/05/29 03:38:11;;;;;;;1.85;1.00;;;23.60;37.10;;;;;;4989246;28;20227;-44
2021/05/29 03:40:37;;;;;;;1.35;1.25;;;23.60;37.00;;;;;;4983738;28;20554;-44
2021/05/29 03:43:03;;;;;;;1.23;1.13;;;23.60;37.00;;;;;;4989681;28;20219;-48
2021/05/29 03:45:29;;;;;;;1.33;1.23;;;23.60;37.00;;;;;;4990492;28;20219;-44
2021/05/29 03:47:55;;;;;;;1.38;1.27;;;23.60;37.10;;;;;;4989550;28;20646;-45
2021/05/29 03:50:21;;;;;;;1.02;1.00;;;23.60;37.00;;;;;;4989654;28;20601;-49
2021/05/29 03:52:47;;;;;;;1.30;1.20;;;23.60;37.00;;;;;;4989465;28;20239;-40
2021/05/29 03:55:13;;;;;;;1.50;1.30;;;23.60;36.90;;;;;;4990268;28;20224;-39
2021/05/29 03:57:39;;;;;;;1.30;1.20;;;23.60;36.80;;;;;;4992048;28;20283;-45
2021/05/29 04:00:05;;;;;;;1.40;1.30;;;23.60;36.80;;;;;;4994380;28;20211;-45
2021/05/29 04:02:31;;;;;;;1.35;1.25;;;23.60;37.00;;;;;;4993108;28;20208;-44
2021/05/29 04:04:57;;;;;;;1.20;1.10;;;23.60;36.90;;;;;;4989621;28;20211;-47
2021/05/29 04:07:23;;;;;;;1.10;1.10;;;23.60;36.80;;;;;;4993203;28;20215;-48
2021/05/29 04:09:49;;;;;;;1.15;1.05;;;23.60;36.70;;;;;;4986578;28;20196;-44
2021/05/29 04:12:15;;;;;;;1.20;1.10;;;23.60;36.80;;;;;;4987521;28;20802;-43
2021/05/29 04:14:41;;;;;;;1.30;1.20;;;23.60;36.70;;;;;;4992465;28;20266;-45
2021/05/29 04:17:09;;;;;;;1.35;1.25;;;23.60;36.70;;;;;;4993533;28;20227;-40
2021/05/29 04:19:35;;;;;;;1.35;1.25;;;23.60;36.70;;;;;;4992982;28;20246;-43
2021/05/29 04:22:01;;;;;;;1.70;1.05;;;23.60;36.80;;;;;;4994029;28;20551;-47
2021/05/29 04:24:27;;;;;;;1.25;1.15;;;23.60;36.60;;;;;;4993084;28;20204;-45
2021/05/29 04:26:53;;;;;;;1.50;1.38;;;23.60;36.80;;;;;;4993214;28;20219;-52
2021/05/29 04:29:19;;;;;;;1.48;1.38;;;23.60;36.80;;;;;;4992628;28;20295;-50
2021/05/29 04:31:45;;;;;;;1.38;1.27;;;23.60;36.70;;;;;;4994080;28;20231;-47
2021/05/29 04:34:10;;;;;;;1.23;1.10;;;23.60;36.80;;;;;;4992028;28;20302;-41
2021/05/29 04:36:36;;;;;;;1.25;1.17;;;23.60;36.70;;;;;;4992467;28;20224;-50
2021/05/29 04:39:02;;;;;;;1.60;1.50;;;23.60;36.80;;;;;;4991886;28;20227;-46
2021/05/29 04:41:28;;;;;;;1.30;1.20;;;23.60;36.80;;;;;;4989709;28;20566;-41
2021/05/29 04:43:54;;;;;;;1.55;1.20;;;23.60;36.80;;;;;;4992337;28;20574;-42
2021/05/29 04:46:20;;;;;;;1.30;1.20;;;23.60;36.90;;;;;;4993378;28;20231;-43
2021/05/29 04:48:46;;;;;;;1.48;1.38;;;23.60;36.90;;;;;;4991860;28;20243;-41
2021/05/29 04:51:13;;;;;;;1.10;1.10;;;23.60;37.10;;;;;;4991187;28;20564;-48
2021/05/29 04:53:39;;;;;;;1.48;1.30;;;23.60;37.00;;;;;;4991829;28;20204;-43
2021/05/29 04:56:05;;;;;;;1.30;1.20;;;23.60;37.00;;;;;;4992912;28;20230;-39
2021/05/29 04:58:31;;;;;;;1.10;1.10;;;23.60;37.10;;;;;;4991856;28;20262;-39
2021/05/29 05:00:57;;;;;;;1.13;1.10;;;23.60;37.20;;;;;;4992516;28;20203;-40
2021/05/29 05:03:23;;;;;;;1.20;1.20;;;23.60;37.20;;;;;;4992603;28;20204;-44
2021/05/29 05:05:49;;;;;;;1.70;1.60;;;23.60;37.20;;;;;;4992375;28;20613;-46
2021/05/29 05:08:15;;;;;;;1.20;1.20;;;23.60;37.10;;;;;;4990902;28;20197;-43
2021/05/29 05:10:41;;;;;;;1.65;1.20;;;23.60;37.20;;;;;;4992438;28;20200;-39
2021/05/29 05:13:07;;;;;;;2.42;1.42;;;23.60;37.20;;;;;;4992686;28;20204;-46
2021/05/29 05:15:33;;;;;;;1.50;1.30;;;23.60;37.30;;;;;;4992017;28;20224;-42
2021/05/29 05:17:59;;;;;;;1.60;1.20;;;23.60;37.30;;;;;;4991657;28;20219;-45
2021/05/29 05:20:25;;;;;;;1.27;1.17;;;23.60;37.40;;;;;;4992155;28;20295;-44
2021/05/29 05:22:51;;;;;;;1.30;1.20;;;23.60;37.20;;;;;;4978592;28;20278;-39
2021/05/29 05:25:17;;;;;;;1.50;1.25;;;23.60;37.30;;;;;;4992804;28;20692;-45
2021/05/29 05:27:43;;;;;;;1.23;1.13;;;23.60;37.30;;;;;;4990700;28;20211;-43
2021/05/29 06:08:38;;;;;;;1.30;1.20;;;23.70;37.50;;;;;;5472858;22;20249;-56
2021/05/29 06:11:04;;;;;;;2.28;1.50;;;23.70;37.80;;;;;;5006225;28;20233;-65
2021/05/29 06:17:54;;;;;;;1.67;1.38;;;23.70;37.80;;;;;;5009684;28;20204;-64
2021/05/29 06:19:12;;;;;;;1.77;1.00;;;23.80;37.70;;;;;;4998756;28;20229;-60
2021/05/29 06:21:41;;;;;;;1.38;1.20;;;23.80;37.60;;;;;;5004837;28;20203;-58
2021/05/29 06:24:07;;;;;;;2.70;1.40;;;23.80;37.90;;;;;;4999079;28;20195;-62
2021/05/29 06:26:33;;;;;;;2.03;1.38;;;23.80;37.90;;;;;;5002043;28;20223;-60
2021/05/29 06:28:59;;;;;;;3.88;1.67;;;23.80;37.60;;;;;;5006513;28;20659;-61
2021/05/29 06:31:27;;;;;;;6.82;2.13;;;23.70;35.80;;;;;;5000393;28;20282;-41
2021/05/29 06:33:53;;;;;;;2.97;2.33;;;23.00;32.00;;;;;;4998492;28;20280;-41
2021/05/29 06:36:19;;;;;;;2.25;2.05;;;21.90;32.30;;;;;;4998008;28;20219;-46
2021/05/29 06:38:45;;;;;;;2.55;1.90;;;22.30;33.70;;;;;;5001780;28;20326;-40
2021/05/29 06:41:11;;;;;;;3.53;1.98;;;22.70;33.50;;;;;;5000966;28;20203;-44
2021/05/29 06:43:37;;;;;;;3.28;1.90;;;23.00;33.30;;;;;;4991526;28;20294;-41
2021/05/29 06:46:03;;;;;;;3.65;1.55;;;23.20;33.70;;;;;;4998269;28;20570;-43
2021/05/29 06:48:29;;;;;;;1.95;1.40;;;23.30;33.90;;;;;;5001534;28;20266;-51
2021/05/29 06:50:57;;;;;;;4.40;1.80;;;23.40;34.10;;;;;;5006518;28;20196;-41
2021/05/29 06:53:26;;;;;;;2.15;1.40;;;23.50;34.30;;;;;;4999653;28;20212;-43
2021/05/29 06:58:47;;;;;;;2.75;1.70;;;23.60;34.60;;;;;;5004724;28;20242;-40
2021/05/29 07:01:13;;;;;;;2.00;1.48;;;23.60;34.70;;;;;;5004085;28;20269;-47
2021/05/29 07:03:39;;;;;;;2.17;1.40;;;23.60;34.80;;;;;;4995718;28;20647;-40
2021/05/29 07:06:05;;;;;;;1.48;1.20;;;23.60;34.90;;;;;;5008315;28;20200;-44
2021/05/29 07:08:31;;;;;;;1.63;1.30;;;23.70;35.20;;;;;;4995739;28;20222;-41
2021/05/29 07:10:57;;;;;;;1.50;1.40;;;23.70;35.20;;;;;;5005791;28;20230;-39
2021/05/29 07:13:23;;;;;;;3.13;1.63;;;23.80;35.30;;;;;;5005592;28;20207;-39
2021/05/29 07:15:49;;;;;;;1.40;1.30;;;23.90;35.90;;;;;;4995626;28;20283;-40
2021/05/29 07:18:16;;;;;;;1.65;1.30;;;23.90;35.60;;;;;;5003721;28;20231;-43
2021/05/29 07:20:42;;;;;;;2.40;1.55;;;23.90;35.90;;;;;;4999789;28;20203;-44
2021/05/29 07:23:08;;;;;;;1.63;1.30;;;23.90;35.90;;;;;;4990976;28;20199;-41
2021/05/29 07:25:34;;;;;;;2.60;1.27;;;23.90;35.90;;;;;;4996417;28;20210;-47
2021/05/29 07:28:00;;;;;;;1.92;0.90;;;23.90;35.70;;;;;;5007473;28;20263;-43
2021/05/29 07:30:26;;;;;;;1.63;1.20;;;23.90;36.40;;;;;;5000052;28;20948;-42
2021/05/29 07:32:52;;;;;;;1.02;0.93;;;23.90;36.30;;;;;;5000266;28;20220;-44
2021/05/29 07:35:18;;;;;;;1.40;1.30;;;23.90;36.30;;;;;;5000721;28;20212;-44
2021/05/29 07:37:44;;;;;;;1.30;1.20;;;23.90;35.90;;;;;;5004620;28;20270;-42
2021/05/29 07:40:10;;;;;;;2.03;1.20;;;23.90;35.90;;;;;;5009855;28;20281;-43
2021/05/29 07:42:36;;;;;;;1.45;1.35;;;23.90;35.70;;;;;;5003410;28;20223;-43
2021/05/29 07:45:02;;;;;;;1.27;1.17;;;23.90;36.00;;;;;;5008947;28;20208;-42
2021/05/29 07:47:28;;;;;;;1.50;1.13;;;23.80;36.00;;;;;;5013606;28;20333;-41
2021/05/29 07:49:54;;;;;;;1.48;1.38;;;23.80;36.00;;;;;;4995890;28;20208;-41
2021/05/29 07:52:20;;;;;;;1.75;1.27;;;23.80;36.20;;;;;;4996871;28;20632;-46
2021/05/29 07:54:46;;;;;;;2.17;1.10;;;23.90;36.80;;;;;;4997119;28;20220;-42
2021/05/29 07:57:12;;;;;;;1.80;1.35;;;23.90;36.50;;;;;;4994430;28;20252;-46
2021/05/29 07:59:38;;;;;;;1.65;1.50;;;23.90;36.40;;;;;;5011074;28;20227;-46
2021/05/29 08:02:04;;;;;;;1.30;1.20;;;23.80;36.50;;;;;;5019320;28;20199;-45
2021/05/29 08:04:30;;;;;;;1.25;1.15;;;23.80;36.40;;;;;;5019973;28;20216;-42
2021/05/29 08:06:56;;;;;;;1.40;1.30;;;23.80;36.40;;;;;;5013902;28;20269;-41
2021/05/29 08:09:22;;;;;;;2.22;1.30;;;23.80;36.60;;;;;;5009307;28;20222;-44
2021/05/29 08:11:48;;;;;;;1.48;1.38;;;23.80;36.60;;;;;;4995594;28;20298;-44
2021/05/29 08:14:15;;;;;;;2.03;1.48;;;23.80;36.70;;;;;;5031468;28;20206;-43
2021/05/29 08:16:42;;;;;;;1.65;1.17;;;23.80;36.70;;;;;;5033140;28;20265;-42
2021/05/29 08:19:08;;;;;;;1.70;1.17;;;23.80;36.80;;;;;;5032761;28;20238;-46
2021/05/29 08:21:34;;;;;;;2.55;1.35;;;23.80;36.80;;;;;;5021571;28;20288;-46
2021/05/29 08:24:00;;;;;;;1.67;1.40;;;23.80;36.70;;;;;;5013376;28;20558;-48
2021/05/29 08:26:26;;;;;;;1.52;1.42;;;23.80;36.60;;;;;;5009287;28;20211;-45
2021/05/29 08:28:52;;;;;;;2.10;1.58;;;23.80;36.50;;;;;;4993581;28;20208;-46
2021/05/29 08:31:18;;;;;;;2.13;1.30;;;23.80;36.30;;;;;;4993653;28;20215;-48
2021/05/29 08:33:44;;;;;;;1.30;1.20;;;23.80;36.20;;;;;;5006162;28;20207;-42
2021/05/29 08:36:10;;;;;;;4.03;1.30;;;23.80;36.20;;;;;;5018688;28;20582;-48
2021/05/29 08:38:36;;;;;;;1.42;1.30;;;23.80;36.00;;;;;;5032573;28;20234;-43
2021/05/29 08:41:02;;;;;;;1.20;1.10;;;23.80;36.00;;;;;;5033307;28;20538;-44
2021/05/29 08:43:28;;;;;;;1.20;1.20;;;23.80;36.00;;;;;;5021663;28;20207;-44
2021/05/29 08:45:54;;;;;;;1.40;1.30;;;23.80;35.90;;;;;;5016336;28;20248;-46
2021/05/29 08:48:20;;;;;;;1.40;1.30;;;23.80;36.00;;;;;;5013066;28;20227;-44
2021/05/29 08:53:26;;;;;;;1.70;1.60;;;23.90;36.00;;;;;;5010725;28;20237;-44
2021/05/29 08:55:52;;;;;;;1.40;1.30;;;23.80;36.10;;;;;;5013207;28;20203;-47
2021/05/29 08:58:18;;;;;;;1.88;1.30;;;23.80;36.00;;;;;;5012185;28;20603;-42
2021/05/29 09:00:44;;;;;;;1.83;1.30;;;23.80;36.10;;;;;;5006216;28;20212;-47
2021/05/29 09:03:11;;;;;;;1.35;1.02;;;23.80;36.00;;;;;;4995809;28;20638;-49
2021/05/29 09:05:37;;;;;;;1.50;1.40;;;23.80;36.00;;;;;;5027966;28;20199;-45
2021/05/29 09:08:03;;;;;;;1.20;1.10;;;23.80;36.10;;;;;;5012338;28;20277;-43
2021/05/29 09:10:29;;;;;;;1.40;1.30;;;23.80;36.10;;;;;;5012844;28;20227;-42
2021/05/29 09:12:55;;;;;;;1.48;1.20;;;23.80;36.10;;;;;;5010485;28;20267;-45
2021/05/29 09:15:21;;;;;;;1.35;1.25;;;23.80;36.80;;;;;;5012925;28;20207;-43
2021/05/29 09:17:48;;;;;;;1.60;1.30;;;23.80;36.20;;;;;;5004724;28;20660;-44
2021/05/29 09:20:15;;;;;;;1.75;1.40;;;23.80;36.20;;;;;;5000035;28;20206;-43
2021/05/29 09:22:41;;;;;;;1.33;1.27;;;23.80;36.40;;;;;;5032669;28;20681;-46
2021/05/29 09:25:07;;;;;;;1.38;1.10;;;23.90;36.40;;;;;;5024052;28;20199;-43
2021/05/29 09:27:33;;;;;;;1.30;1.20;;;23.90;36.30;;;;;;5012540;28;20234;-44
2021/05/29 09:29:59;;;;;;;1.52;1.40;;;23.90;36.50;;;;;;5012498;28;20546;-49
2021/05/29 09:32:24;;;;;;;1.40;1.30;;;23.90;36.30;;;;;;5012887;28;20207;-46
2021/05/29 09:34:52;;;;;;;1.30;1.20;;;23.90;36.40;;;;;;5010354;28;20203;-46
2021/05/29 09:37:19;;;;;;;2.55;1.40;;;23.90;36.30;;;;;;5032315;28;20223;-41
2021/05/29 09:39:45;;;;;;;1.30;1.20;;;23.90;36.30;;;;;;5012738;28;20227;-45
2021/05/29 09:42:11;;;;;;;1.75;1.20;;;23.90;36.30;;;;;;5012350;28;20203;-41
2021/05/29 09:44:37;;;;;;;1.52;1.20;;;23.90;36.30;;;;;;5012614;28;20238;-43
2021/05/29 09:47:03;;;;;;;1.45;1.35;;;23.90;36.30;;;;;;5015789;28;20344;-46
2021/05/29 09:49:29;;;;;;;1.00;1.00;;;23.90;36.40;;;;;;5017596;28;20203;-43
2021/05/29 09:51:55;;;;;;;1.20;1.10;;;23.90;36.50;;;;;;5009947;28;20688;-45
2021/05/29 09:54:21;;;;;;;1.25;1.10;;;23.80;36.30;;;;;;5009621;28;20203;-43
2021/05/29 09:56:47;;;;;;;1.48;1.27;;;23.80;36.30;;;;;;5011913;28;20582;-45
2021/05/29 09:59:13;;;;;;;1.17;1.17;;;23.80;36.30;;;;;;5011919;28;20227;-46
2021/05/29 10:01:40;;;;;;;1.20;1.10;;;23.80;36.30;;;;;;5011735;28;20573;-43
2021/05/29 10:04:06;;;;;;;1.38;1.25;;;23.80;36.30;;;;;;5011945;28;20592;-42
2021/05/29 10:06:32;;;;;;;1.00;1.00;;;23.80;36.40;;;;;;5019942;28;20218;-42
2021/05/29 10:08:58;;;;;;;1.05;1.02;;;23.80;36.30;;;;;;5013635;28;20218;-47
2021/05/29 10:11:24;;;;;;;1.20;1.10;;;23.80;36.30;;;;;;4992017;28;20671;-52
2021/05/29 10:13:50;;;;;;;1.20;1.10;;;23.80;36.30;;;;;;4992401;28;20212;-41
2021/05/29 10:16:16;;;;;;;1.52;1.02;;;23.80;36.30;;;;;;4995129;28;20207;-44
2021/05/29 10:18:42;;;;;;;1.20;1.10;;;23.80;36.30;;;;;;5011344;28;20309;-45
2021/05/29 10:21:08;;;;;;;1.13;1.02;;;23.80;36.30;;;;;;5011761;28;20670;-46
2021/05/29 10:23:34;;;;;;;1.60;1.10;;;23.80;36.20;;;;;;5011842;28;20278;-43
2021/05/29 10:26:00;;;;;;;1.02;1.02;;;23.90;36.20;;;;;;5005619;28;20225;-41
2021/05/29 10:28:26;;;;;;;2.20;1.38;;;23.80;36.20;;;;;;5017746;28;20214;-43
2021/05/29 10:30:52;;;;;;;1.50;1.40;;;23.90;36.30;;;;;;5005480;28;20199;-48
2021/05/29 10:33:19;;;;;;;1.63;1.40;;;23.90;33.70;;;;;;5008468;28;20672;-42
2021/05/29 10:35:46;;;;;;;1.77;1.58;;;23.80;32.70;;;;;;5019154;28;20203;-45
2021/05/29 10:38:12;;;;;;;4.00;1.70;;;23.80;32.50;;;;;;5011759;28;20594;-43
2021/05/29 10:40:38;;;;;;;1.73;1.60;;;23.80;32.40;;;;;;5031487;28;20293;-46
2021/05/29 10:43:05;;;;;;;2.35;1.85;;;23.80;31.80;;;;;;5020536;28;20266;-43
2021/05/29 10:45:31;;;;;;;2.58;1.70;;;23.80;31.40;;;;;;4992307;28;20227;-42
2021/05/29 10:47:57;;;;;;;2.55;1.77;;;23.80;31.20;;;;;;4991426;28;20540;-42
2021/05/29 10:50:24;;;;;;;2.67;1.85;;;23.70;30.00;;;;;;5003001;28;20207;-43
2021/05/29 10:52:50;;;;;;;2.25;1.50;;;23.70;30.00;;;;;;4990874;28;20262;-41
2021/05/29 10:55:17;;;;;;;1.90;1.80;;;23.70;30.10;;;;;;4996301;28;20195;-45
2021/05/29 10:57:43;;;;;;;2.90;1.98;;;23.70;29.10;;;;;;5004681;28;20258;-44
2021/05/29 11:00:08;;;;;;;6.75;2.70;;;23.70;29.20;;;;;;5002293;28;20203;-44
2021/05/29 11:02:34;;;;;;;2.45;1.90;;;23.70;29.50;;;;;;4998743;28;20218;-43
2021/05/29 11:05:01;;;;;;;3.13;2.33;;;23.70;29.40;;;;;;5001852;28;20195;-44
2021/05/29 11:07:27;;;;;;;6.07;3.90;;;23.70;29.10;;;;;;5001957;28;20212;-45
2021/05/29 11:09:54;;;;;;;11.88;6.72;;;23.70;28.60;;;;;;5007046;28;20289;-46
2021/05/29 11:12:20;;;;;;;13.45;6.22;;;23.70;28.50;;;;;;5008118;28;20235;-50
2021/05/29 11:14:47;;;;;;;16.58;8.38;;;23.70;28.50;;;;;;5004883;28;20202;-48
2021/05/29 11:17:13;;;;;;;17.77;11.05;;;23.70;28.60;;;;;;5005737;28;20683;-43
2021/05/29 11:19:39;;;;;;;17.58;9.73;;;23.70;28.50;;;;;;4999019;28;20605;-44
2021/05/29 11:22:06;;;;;;;14.55;8.35;;;23.70;28.50;;;;;;4998296;28;20229;-43
2021/05/29 11:24:32;;;;;;;14.07;7.00;;;23.70;28.50;;;;;;5004310;28;20221;-49
2021/05/29 11:26:58;;;;;;;8.88;5.90;;;23.70;28.50;;;;;;5005044;28;20630;-51
2021/05/29 11:29:24;;;;;;;12.13;5.30;;;23.70;28.40;;;;;;5001040;28;20207;-45
2021/05/29 11:31:51;;;;;;;7.90;4.05;;;23.70;28.00;;;;;;4999713;28;20206;-47
2021/05/29 11:34:17;;;;;;;7.35;4.13;;;23.70;27.80;;;;;;5006998;28;20207;-52
2021/05/29 11:36:44;;;;;;;6.90;3.50;;;23.60;27.70;;;;;;5010040;28;20221;-47
2021/05/29 11:39:10;;;;;;;6.22;2.75;;;23.60;27.50;;;;;;4996793;28;20235;-45
2021/05/29 11:41:36;;;;;;;4.28;2.95;;;23.60;27.30;;;;;;5001793;28;20241;-47
2021/05/29 11:44:02;;;;;;;4.80;2.92;;;23.60;27.30;;;;;;5004025;28;20199;-43
2021/05/29 11:46:29;;;;;;;2.95;2.35;;;23.60;27.00;;;;;;4991923;28;20251;-47
2021/05/29 11:48:55;;;;;;;3.17;2.30;;;23.60;26.70;;;;;;4991560;28;20204;-43
2021/05/29 11:51:21;;;;;;;2.88;1.77;;;23.50;26.50;;;;;;4999812;28;20557;-49
2021/05/29 11:53:47;;;;;;;2.30;2.10;;;23.60;26.20;;;;;;4999546;28;20686;-41
2021/05/29 11:56:13;;;;;;;2.95;1.90;;;23.60;26.30;;;;;;4989678;28;20252;-43
2021/05/29 11:58:39;;;;;;;2.10;1.70;;;23.60;26.20;;;;;;5001666;28;20222;-51
2021/05/29 12:01:05;;;;;;;2.45;1.60;;;23.60;26.20;;;;;;5004078;28;20250;-48
2021/05/29 12:03:31;;;;;;;2.05;1.80;;;23.60;26.20;;;;;;5003526;28;20203;-45
2021/05/29 12:05:57;;;;;;;1.77;1.50;;;23.60;26.50;;;;;;4991691;28;20251;-50
2021/05/29 12:08:23;;;;;;;1.73;1.63;;;23.60;26.30;;;;;;5000948;28;20571;-43
2021/05/29 12:10:49;;;;;;;1.70;1.60;;;23.60;26.10;;;;;;5000778;28;20215;-46
2021/05/29 12:13:15;;;;;;;1.88;1.77;;;23.60;26.10;;;;;;5009921;28;20210;-47
2021/05/29 12:15:42;;;;;;;2.92;1.50;;;23.60;25.90;;;;;;5001141;28;20640;-44
2021/05/29 12:18:08;;;;;;;1.42;1.33;;;23.60;25.80;;;;;;5004716;28;20585;-43
2021/05/29 12:20:34;;;;;;;1.50;1.40;;;23.60;25.80;;;;;;5007502;28;20210;-45
2021/05/29 12:23:00;;;;;;;1.67;1.23;;;23.60;26.00;;;;;;4999483;28;20204;-47
2021/05/29 12:25:29;;;;;;;2.17;1.40;;;23.60;25.90;;;;;;5003586;28;20565;-45
2021/05/29 12:27:55;;;;;;;1.40;1.30;;;23.60;26.00;;;;;;5001641;28;20656;-45
2021/05/29 12:30:21;;;;;;;2.08;1.75;;;23.50;25.60;;;;;;5009712;28;20259;-43
2021/05/29 12:32:48;;;;;;;1.48;1.38;;;23.50;25.10;;;;;;4993698;28;20200;-46
2021/05/29 12:35:14;;;;;;;1.30;1.20;;;23.50;25.10;;;;;;5000588;28;20660;-45
2021/05/29 12:37:40;;;;;;;1.40;1.30;;;23.50;24.70;;;;;;5008626;28;20203;-43
2021/05/29 12:40:06;;;;;;;1.98;1.38;;;23.50;24.60;;;;;;5001710;28;20199;-47
2021/05/29 12:42:33;;;;;;;1.48;1.25;;;23.50;24.80;;;;;;5004515;28;20627;-47
2021/05/29 12:44:59;;;;;;;1.40;1.30;;;23.50;25.00;;;;;;5010433;28;20227;-44
2021/05/29 12:47:25;;;;;;;1.30;1.20;;;23.50;25.10;;;;;;5009977;28;20195;-44
2021/05/29 12:49:52;;;;;;;1.20;1.10;;;23.50;24.70;;;;;;5009753;28;20199;-43
2021/05/29 12:52:18;;;;;;;1.30;1.20;;;23.50;24.70;;;;;;5009993;28;20207;-43
2021/05/29 12:54:44;;;;;;;1.65;1.40;;;23.50;24.90;;;;;;5000020;28;20224;-51
2021/05/29 12:57:11;;;;;;;1.80;1.70;;;23.50;24.50;;;;;;4999496;28;20667;-47
2021/05/29 12:59:37;;;;;;;1.33;1.23;;;23.50;24.60;;;;;;5001894;28;20230;-47
2021/05/29 13:02:08;;;;;;;1.77;1.20;;;23.50;24.40;;;;;;4995909;28;20648;-44
2021/05/29 13:07:27;;;;;;;1.42;1.20;;;23.50;24.60;;;;;;5011345;28;20265;-45
2021/05/29 13:09:57;;;;;;;1.40;1.30;;;23.40;24.40;;;;;;5010279;28;20638;-46
2021/05/29 13:12:23;;;;;;;2.22;1.42;;;23.40;24.40;;;;;;5008773;28;20286;-51
2021/05/29 13:14:49;;;;;;;1.30;1.20;;;23.40;24.50;;;;;;5005556;28;20223;-49
2021/05/29 13:17:15;;;;;;;1.25;1.23;;;23.40;24.30;;;;;;5003877;28;20417;-44
2021/05/29 13:19:41;;;;;;;1.85;1.73;;;23.40;24.50;;;;;;5011524;28;20246;-43
2021/05/29 13:22:07;;;;;;;2.17;1.60;;;23.40;24.50;;;;;;4998451;28;20211;-43
2021/05/29 13:24:33;;;;;;;1.35;1.23;;;23.40;24.60;;;;;;4995399;28;20594;-46
2021/05/29 13:26:59;;;;;;;1.30;1.20;;;23.40;24.30;;;;;;4999185;28;20206;-46
2021/05/29 13:29:25;;;;;;;1.30;1.20;;;23.40;24.50;;;;;;5001982;28;20200;-44